Time;durP1;ratioP1;P1;durP2;ratioP2;P2;SDS_P1;SDS_P2;PMS_P1;PMS_P2;Temp;Humidity;BMP_temperature;BMP_pressure;BME280_temperature;BME280_humidity;BME280_pressure;Samples;Min_cycle;Max_cycle;Signal;HPM_P1;HPM_P2
2022/09/05 00:00:18;;;;;;;10.60;9.70;;;;;;;;;;5048344;28;24439;-45
2022/09/05 00:02:48;;;;;;;10.20;9.40;;;;;;;;;;5044329;28;24419;-45
2022/09/05 00:05:20;;;;;;;10.43;9.63;;;;;;;;;;5034153;28;24766;-45
2022/09/05 00:08:01;;;;;;;10.60;9.80;;;;;;;;;;5031785;28;24463;-45
2022/09/05 00:10:31;;;;;;;10.63;9.80;;;;;;;;;;5042706;28;24438;-45
2022/09/05 00:12:57;;;;;;;10.97;10.10;;;;;;;;;;5037116;28;24499;-46
2022/09/05 00:15:29;;;;;;;10.50;9.70;;;;;;;;;;5038437;28;24783;-46
2022/09/05 00:18:13;;;;;;;10.43;9.63;;;;;;;;;;5043308;28;24432;-45
2022/09/05 00:20:47;;;;;;;10.70;9.90;;;;;;;;;;5040680;28;24423;-46
2022/09/05 00:23:24;;;;;;;10.35;9.55;;;;;;;;;;5031756;28;24470;-46
2022/09/05 00:26:11;;;;;;;10.60;9.80;;;;;;;;;;5035580;28;24423;-46
2022/09/05 00:28:39;;;;;;;10.80;9.90;;;;;;;;;;5033670;28;24427;-46
2022/09/05 00:31:11;;;;;;;10.70;9.90;;;;;;;;;;5039989;28;24759;-46
2022/09/05 00:33:55;;;;;;;11.13;10.13;;;;;;;;;;5045712;28;24500;-46
2022/09/05 00:36:30;;;;;;;10.07;9.38;;;;;;;;;;5046459;28;24474;-45
2022/09/05 00:38:59;;;;;;;10.80;9.90;;;;;;;;;;5036272;28;24515;-45
2022/09/05 00:41:25;;;;;;;10.82;10.02;;;;;;;;;;5031417;28;24424;-45
2022/09/05 00:43:51;;;;;;;10.68;9.88;;;;;;;;;;5038785;28;24423;-46
2022/09/05 00:46:22;;;;;;;11.10;10.20;;;;;;;;;;5036859;28;24783;-45
2022/09/05 00:48:50;;;;;;;10.80;10.00;;;;;;;;;;5045732;28;24415;-46
2022/09/05 00:51:19;;;;;;;10.77;9.97;;;;;;;;;;5035089;28;24423;-46
2022/09/05 00:53:47;;;;;;;11.73;10.73;;;;;;;;;;5044169;28;24423;-45
2022/09/05 00:56:26;;;;;;;10.88;9.98;;;;;;;;;;5037117;28;24557;-46
2022/09/05 00:59:06;;;;;;;11.00;10.20;;;;;;;;;;5032927;28;24487;-46
2022/09/05 01:01:44;;;;;;;11.77;10.77;;;;;;;;;;5034207;28;24519;-45
2022/09/05 01:04:09;;;;;;;12.02;10.93;;;;;;;;;;5040496;28;24477;-46
2022/09/05 01:07:00;;;;;;;11.40;10.50;;;;;;;;;;5041192;28;24431;-46
2022/09/05 01:09:34;;;;;;;10.93;10.02;;;;;;;;;;5044127;28;24465;-45
2022/09/05 01:12:29;;;;;;;11.80;10.80;;;;;;;;;;5034392;28;24870;-46
2022/09/05 01:14:59;;;;;;;11.18;10.23;;;;;;;;;;5027867;28;25004;-45
2022/09/05 01:17:54;;;;;;;11.70;10.80;;;;;;;;;;5034660;28;24433;-45
2022/09/05 01:20:27;;;;;;;10.88;10.07;;;;;;;;;;5041731;28;24500;-45
2022/09/05 01:23:04;;;;;;;10.60;9.80;;;;;;;;;;5042412;28;24838;-45
2022/09/05 01:25:38;;;;;;;10.25;9.45;;;;;;;;;;5034282;28;24431;-45
2022/09/05 01:28:12;;;;;;;10.73;9.88;;;;;;;;;;5039524;28;24482;-45
2022/09/05 01:30:55;;;;;;;10.73;9.85;;;;;;;;;;5038453;28;24880;-45
2022/09/05 01:33:29;;;;;;;11.55;10.70;;;;;;;;;;5038915;28;24439;-45
2022/09/05 01:36:13;;;;;;;10.93;10.13;;;;;;;;;;5030969;28;24456;-45
2022/09/05 01:38:39;;;;;;;11.27;10.37;;;;;;;;;;5035576;28;24648;-46
2022/09/05 01:41:13;;;;;;;11.25;10.45;;;;;;;;;;5029740;28;24832;-45
2022/09/05 01:43:57;;;;;;;10.90;10.10;;;;;;;;;;5032533;28;24433;-45
2022/09/05 01:46:42;;;;;;;11.30;10.40;;;;;;;;;;5045299;28;24793;-44
2022/09/05 01:49:28;;;;;;;11.07;10.27;;;;;;;;;;5029990;28;24431;-44
2022/09/05 01:52:11;;;;;;;11.73;10.82;;;;;;;;;;5035840;28;24434;-45
2022/09/05 01:54:59;;;;;;;11.60;10.80;;;;;;;;;;5031406;28;24473;-45
2022/09/05 01:57:43;;;;;;;11.20;10.30;;;;;;;;;;5028059;28;24776;-45
2022/09/05 02:00:20;;;;;;;11.95;11.05;;;;;;;;;;5036001;28;24443;-45
2022/09/05 02:02:59;;;;;;;11.35;10.45;;;;;;;;;;5031432;28;24724;-45
2022/09/05 02:05:31;;;;;;;12.38;11.38;;;;;;;;;;5037127;28;24440;-46
2022/09/05 02:08:07;;;;;;;12.45;11.50;;;;;;;;;;5042809;28;24643;-45
2022/09/05 02:10:32;;;;;;;11.75;10.85;;;;;;;;;;5035497;28;24501;-45
2022/09/05 02:13:09;;;;;;;11.55;10.60;;;;;;;;;;5034069;28;24436;-44
2022/09/05 02:15:54;;;;;;;12.10;11.20;;;;;;;;;;5042128;28;24972;-45
2022/09/05 02:18:22;;;;;;;11.60;10.60;;;;;;;;;;5039972;28;24876;-45
2022/09/05 02:20:52;;;;;;;11.18;10.38;;;;;;;;;;5039505;28;24813;-45
2022/09/05 02:23:17;;;;;;;11.77;10.77;;;;;;;;;;5028446;28;25037;-46
2022/09/05 02:25:52;;;;;;;12.13;11.02;;;;;;;;;;5031434;28;24782;-45
2022/09/05 02:28:28;;;;;;;11.13;10.23;;;;;;;;;;5032904;28;24431;-45
2022/09/05 02:30:55;;;;;;;11.00;10.20;;;;;;;;;;5027956;28;24452;-45
2022/09/05 02:33:28;;;;;;;11.90;10.80;;;;;;;;;;5032484;28;24972;-45
2022/09/05 02:36:32;;;;;;;12.10;11.20;;;;;;;;;;5038432;28;24455;-45
2022/09/05 02:38:59;;;;;;;12.63;11.57;;;;;;;;;;5051184;28;24435;-45
2022/09/05 02:41:29;;;;;;;11.40;10.57;;;;;;;;;;5056240;28;24454;-45
2022/09/05 02:43:57;;;;;;;12.20;11.20;;;;;;;;;;5052300;28;24449;-44
2022/09/05 02:46:45;;;;;;;11.80;10.90;;;;;;;;;;5038190;28;24423;-45
2022/09/05 02:49:17;;;;;;;12.30;11.20;;;;;;;;;;5028345;28;24420;-45
2022/09/05 02:51:59;;;;;;;11.38;10.57;;;;;;;;;;5038105;28;24435;-45
2022/09/05 02:54:26;;;;;;;11.48;10.57;;;;;;;;;;5036261;28;24427;-46
2022/09/05 02:56:54;;;;;;;11.52;10.55;;;;;;;;;;5033239;28;24423;-46
2022/09/05 02:59:38;;;;;;;12.93;11.93;;;;;;;;;;5030171;28;24822;-45
2022/09/05 03:02:14;;;;;;;11.27;10.38;;;;;;;;;;5036791;28;24420;-45
2022/09/05 03:04:50;;;;;;;11.48;10.57;;;;;;;;;;5036238;28;24539;-46
2022/09/05 03:07:19;;;;;;;12.30;11.35;;;;;;;;;;5043261;28;24476;-44
2022/09/05 03:09:55;;;;;;;12.13;11.13;;;;;;;;;;5030974;28;24432;-45
2022/09/05 03:12:31;;;;;;;12.32;11.32;;;;;;;;;;5032327;28;25018;-46
2022/09/05 03:15:14;;;;;;;11.60;10.70;;;;;;;;;;5038455;28;24530;-45
2022/09/05 03:17:52;;;;;;;11.50;10.60;;;;;;;;;;5049642;28;24431;-46
2022/09/05 03:20:35;;;;;;;11.88;10.98;;;;;;;;;;5039321;28;24453;-45
2022/09/05 03:23:19;;;;;;;12.20;11.10;;;;;;;;;;5029391;28;24392;-45
2022/09/05 03:26:03;;;;;;;14.40;13.20;;;;;;;;;;5032047;28;24524;-45
2022/09/05 03:28:51;;;;;;;11.60;10.75;;;;;;;;;;5039079;28;24432;-45
2022/09/05 03:31:41;;;;;;;12.93;11.73;;;;;;;;;;5038706;28;24428;-45
2022/09/05 03:34:33;;;;;;;13.10;11.90;;;;;;;;;;5045228;28;24533;-46
2022/09/05 03:37:04;;;;;;;12.50;11.50;;;;;;;;;;5035564;28;24439;-45
2022/09/05 03:39:39;;;;;;;12.75;11.73;;;;;;;;;;5029465;28;25317;-46
2022/09/05 03:42:23;;;;;;;12.90;11.90;;;;;;;;;;5039846;28;24784;-46
2022/09/05 03:45:07;;;;;;;13.88;12.68;;;;;;;;;;5044287;28;24466;-46
2022/09/05 03:47:50;;;;;;;13.05;12.05;;;;;;;;;;5045363;28;24929;-46
2022/09/05 03:50:27;;;;;;;12.90;11.90;;;;;;;;;;5037005;28;24431;-46
2022/09/05 03:53:03;;;;;;;13.68;12.68;;;;;;;;;;5042529;28;24466;-47
2022/09/05 03:55:47;;;;;;;13.70;12.60;;;;;;;;;;5040354;28;24443;-46
2022/09/05 03:58:33;;;;;;;13.55;12.52;;;;;;;;;;5039927;28;24431;-46
2022/09/05 04:01:10;;;;;;;12.25;11.27;;;;;;;;;;5041392;28;24568;-45
2022/09/05 04:03:44;;;;;;;13.50;12.30;;;;;;;;;;5047232;28;24484;-46
2022/09/05 04:06:18;;;;;;;13.82;12.73;;;;;;;;;;5035193;28;24439;-46
2022/09/05 04:08:51;;;;;;;12.57;11.57;;;;;;;;;;5041245;28;24875;-46
2022/09/05 04:11:38;;;;;;;14.02;12.82;;;;;;;;;;5028193;28;24582;-46
2022/09/05 04:14:06;;;;;;;13.85;12.63;;;;;;;;;;5053626;28;24423;-46
2022/09/05 04:16:40;;;;;;;13.07;11.98;;;;;;;;;;5047380;28;24427;-46
2022/09/05 04:19:08;;;;;;;13.27;12.18;;;;;;;;;;5040750;28;24909;-47
2022/09/05 04:21:35;;;;;;;13.80;12.60;;;;;;;;;;5036488;28;24473;-46
2022/09/05 04:24:09;;;;;;;13.83;12.63;;;;;;;;;;5040766;28;25030;-46
2022/09/05 04:26:34;;;;;;;13.48;12.38;;;;;;;;;;5029722;28;25554;-46
2022/09/05 04:29:18;;;;;;;14.57;13.38;;;;;;;;;;5038857;28;24437;-46
2022/09/05 04:32:01;;;;;;;14.30;13.10;;;;;;;;;;5039433;28;24532;-46
2022/09/05 04:34:33;;;;;;;14.80;13.60;;;;;;;;;;5038300;28;24455;-46
2022/09/05 04:37:06;;;;;;;13.23;12.23;;;;;;;;;;5034778;28;25015;-47
2022/09/05 04:39:32;;;;;;;13.60;12.50;;;;;;;;;;5037666;28;24419;-47
2022/09/05 04:42:03;;;;;;;13.45;12.35;;;;;;;;;;5027564;28;24478;-45
2022/09/05 04:44:47;;;;;;;13.10;12.00;;;;;;;;;;5025808;28;24404;-47
2022/09/05 04:47:12;;;;;;;14.10;13.00;;;;;;;;;;5038978;28;24400;-46
2022/09/05 04:49:39;;;;;;;13.83;12.73;;;;;;;;;;5029082;28;24439;-45
2022/09/05 04:52:18;;;;;;;12.60;11.70;;;;;;;;;;5025537;28;24392;-46
2022/09/05 04:54:53;;;;;;;14.23;13.15;;;;;;;;;;5032354;28;24535;-46
2022/09/05 04:57:18;;;;;;;12.33;11.43;;;;;;;;;;5027048;28;24546;-45
2022/09/05 05:00:02;;;;;;;11.98;11.18;;;;;;;;;;5039404;28;24837;-46
2022/09/05 05:02:33;;;;;;;13.45;12.27;;;;;;;;;;5041399;28;24664;-46
2022/09/05 05:05:00;;;;;;;14.27;13.07;;;;;;;;;;5040102;28;24447;-46
2022/09/05 05:07:48;;;;;;;13.80;12.60;;;;;;;;;;5039900;28;24485;-46
2022/09/05 05:10:25;;;;;;;14.10;12.93;;;;;;;;;;5033127;28;24563;-45
2022/09/05 05:12:56;;;;;;;12.90;11.80;;;;;;;;;;5033148;28;24427;-46
2022/09/05 05:15:23;;;;;;;13.07;12.07;;;;;;;;;;5039362;28;24431;-46
2022/09/05 05:17:51;;;;;;;13.13;11.93;;;;;;;;;;5036502;28;24477;-47
2022/09/05 05:20:29;;;;;;;14.03;12.83;;;;;;;;;;5038231;28;24495;-46
2022/09/05 05:23:00;;;;;;;13.05;11.95;;;;;;;;;;5043041;28;24975;-46
2022/09/05 05:25:26;;;;;;;13.95;12.80;;;;;;;;;;5038576;28;24546;-46
2022/09/05 05:27:54;;;;;;;13.17;12.07;;;;;;;;;;5039756;28;24522;-45
2022/09/05 05:30:23;;;;;;;13.10;12.00;;;;;;;;;;5032638;28;24473;-45
2022/09/05 05:32:51;;;;;;;14.77;13.50;;;;;;;;;;5036161;28;24419;-46
2022/09/05 05:35:37;;;;;;;13.20;12.00;;;;;;;;;;5035370;28;24805;-48
2022/09/05 05:38:19;;;;;;;12.95;11.95;;;;;;;;;;5026147;28;24448;-46
2022/09/05 05:41:03;;;;;;;13.23;12.13;;;;;;;;;;5041686;28;24589;-46
2022/09/05 05:43:48;;;;;;;13.23;12.15;;;;;;;;;;5034896;28;24467;-45
2022/09/05 05:46:22;;;;;;;13.65;12.55;;;;;;;;;;5027250;28;24431;-45
2022/09/05 05:48:48;;;;;;;13.93;12.68;;;;;;;;;;5024566;28;25061;-45
2022/09/05 05:51:25;;;;;;;13.40;12.30;;;;;;;;;;5025776;28;25059;-47
2022/09/05 05:54:06;;;;;;;12.82;11.82;;;;;;;;;;5033266;28;24454;-46
2022/09/05 05:56:49;;;;;;;14.10;13.00;;;;;;;;;;5044067;28;25247;-47
2022/09/05 05:59:21;;;;;;;14.60;13.40;;;;;;;;;;5035710;28;24436;-47
2022/09/05 06:02:21;;;;;;;13.27;12.18;;;;;;;;;;5029120;28;24951;-46
2022/09/05 06:04:46;;;;;;;12.63;11.52;;;;;;;;;;5037452;28;24424;-47
2022/09/05 06:07:30;;;;;;;11.70;10.60;;;;;;;;;;5040232;28;24486;-47
2022/09/05 06:10:23;;;;;;;13.00;11.90;;;;;;;;;;5025472;28;24435;-47
2022/09/05 06:13:01;;;;;;;13.20;12.00;;;;;;;;;;5035075;28;24434;-48
2022/09/05 06:15:26;;;;;;;13.63;12.43;;;;;;;;;;5045359;28;24468;-46
2022/09/05 06:18:10;;;;;;;11.70;10.70;;;;;;;;;;5043297;28;24473;-46
2022/09/05 06:20:41;;;;;;;12.70;11.50;;;;;;;;;;5042393;28;24423;-46
2022/09/05 06:23:25;;;;;;;12.68;11.50;;;;;;;;;;5029027;28;24486;-46
2022/09/05 06:25:50;;;;;;;12.98;11.88;;;;;;;;;;5046806;28;24957;-46
2022/09/05 06:28:20;;;;;;;12.88;11.77;;;;;;;;;;5031216;28;25044;-45
2022/09/05 06:30:45;;;;;;;13.60;12.40;;;;;;;;;;5036995;28;24939;-46
2022/09/05 06:33:37;;;;;;;12.90;11.73;;;;;;;;;;5036139;28;25124;-47
2022/09/05 06:36:22;;;;;;;13.70;12.50;;;;;;;;;;5035270;28;24451;-47
2022/09/05 06:38:47;;;;;;;12.45;11.45;;;;;;;;;;5036636;28;24430;-46
2022/09/05 06:41:21;;;;;;;12.75;11.68;;;;;;;;;;5025120;28;24431;-47
2022/09/05 06:44:02;;;;;;;13.52;12.32;;;;;;;;;;5026688;28;24487;-45
2022/09/05 06:46:32;;;;;;;12.95;11.75;;;;;;;;;;5032332;28;24917;-46
2022/09/05 06:49:00;;;;;;;13.00;11.98;;;;;;;;;;5035660;28;24427;-44
2022/09/05 06:51:36;;;;;;;13.50;12.40;;;;;;;;;;5026230;28;24439;-44
2022/09/05 06:54:20;;;;;;;12.23;11.23;;;;;;;;;;5026771;28;24407;-46
2022/09/05 06:56:58;;;;;;;13.18;12.07;;;;;;;;;;5037465;28;25072;-45
2022/09/05 06:59:41;;;;;;;13.30;12.10;;;;;;;;;;5045998;28;24851;-46
2022/09/05 07:02:17;;;;;;;12.73;11.63;;;;;;;;;;5045197;28;24496;-46
2022/09/05 07:05:01;;;;;;;12.85;11.70;;;;;;;;;;5046715;28;24407;-46
2022/09/05 07:07:37;;;;;;;11.98;11.07;;;;;;;;;;5046133;28;24458;-46
2022/09/05 07:10:26;;;;;;;11.93;10.93;;;;;;;;;;5045058;28;24905;-48
2022/09/05 07:13:11;;;;;;;13.52;12.43;;;;;;;;;;5048037;28;24419;-45
2022/09/05 07:15:57;;;;;;;13.20;12.10;;;;;;;;;;5046196;28;24489;-46
2022/09/05 07:18:31;;;;;;;13.40;12.30;;;;;;;;;;5033292;28;24534;-46
2022/09/05 07:21:01;;;;;;;14.13;12.88;;;;;;;;;;5024309;28;24416;-45
2022/09/05 07:23:40;;;;;;;13.37;12.27;;;;;;;;;;5026440;28;24415;-45
2022/09/05 07:26:07;;;;;;;14.68;13.45;;;;;;;;;;5026414;28;24391;-45
2022/09/05 07:28:33;;;;;;;13.82;12.73;;;;;;;;;;5026347;28;24400;-46
2022/09/05 07:31:05;;;;;;;14.13;12.93;;;;;;;;;;5033393;28;24427;-45
2022/09/05 07:33:30;;;;;;;13.50;12.40;;;;;;;;;;5026115;28;24399;-45
2022/09/05 07:36:07;;;;;;;13.20;12.00;;;;;;;;;;5026352;28;24981;-45
2022/09/05 07:38:34;;;;;;;14.60;13.20;;;;;;;;;;5026909;28;24399;-45
2022/09/05 07:41:04;;;;;;;15.50;14.10;;;;;;;;;;5043785;28;24473;-46
2022/09/05 07:43:38;;;;;;;13.63;12.43;;;;;;;;;;5032322;28;24423;-46
2022/09/05 07:46:15;;;;;;;12.95;11.85;;;;;;;;;;5035553;28;24517;-46
2022/09/05 07:48:43;;;;;;;13.18;12.07;;;;;;;;;;5029726;28;25188;-47
2022/09/05 07:51:11;;;;;;;14.07;12.88;;;;;;;;;;5029369;28;24400;-46
2022/09/05 07:53:39;;;;;;;13.85;12.75;;;;;;;;;;5033108;28;24499;-47
2022/09/05 07:56:07;;;;;;;14.30;13.10;;;;;;;;;;5029438;28;24431;-47
2022/09/05 07:58:40;;;;;;;13.70;12.50;;;;;;;;;;5028440;28;24404;-47
2022/09/05 08:01:05;;;;;;;14.18;12.88;;;;;;;;;;5029557;28;24395;-47
2022/09/05 08:03:30;;;;;;;14.17;13.00;;;;;;;;;;5042015;28;25228;-47
2022/09/05 08:05:59;;;;;;;14.00;12.80;;;;;;;;;;5049694;28;24395;-47
2022/09/05 08:08:30;;;;;;;13.93;12.70;;;;;;;;;;5049074;28;24411;-47
2022/09/05 08:11:07;;;;;;;14.52;13.13;;;;;;;;;;5049267;28;24982;-47
2022/09/05 08:13:38;;;;;;;14.80;13.50;;;;;;;;;;5048431;28;24593;-48
2022/09/05 08:16:04;;;;;;;14.10;12.90;;;;;;;;;;5049489;28;24424;-54
2022/09/05 08:18:44;;;;;;;13.60;12.47;;;;;;;;;;5048961;28;24402;-47
2022/09/05 08:21:22;;;;;;;13.93;12.82;;;;;;;;;;5049003;28;25286;-47
2022/09/05 08:24:08;;;;;;;14.45;13.25;;;;;;;;;;5048177;28;24427;-47
2022/09/05 08:26:36;;;;;;;14.27;13.07;;;;;;;;;;5049148;28;24784;-47
2022/09/05 08:29:10;;;;;;;14.60;13.40;;;;;;;;;;5049130;28;24394;-47
2022/09/05 08:31:51;;;;;;;13.07;11.98;;;;;;;;;;5049245;28;25399;-47
2022/09/05 08:34:18;;;;;;;14.50;13.30;;;;;;;;;;5047646;28;24439;-47
2022/09/05 08:36:46;;;;;;;14.20;12.90;;;;;;;;;;5048310;28;22273;-47
2022/09/05 08:39:15;;;;;;;14.20;13.00;;;;;;;;;;5048656;28;24929;-46
2022/09/05 08:41:55;;;;;;;14.23;12.93;;;;;;;;;;5048697;28;24394;-45
2022/09/05 08:44:27;;;;;;;13.93;12.73;;;;;;;;;;5047741;28;25413;-45
2022/09/05 08:47:07;;;;;;;14.25;13.15;;;;;;;;;;5048675;28;24550;-46
2022/09/05 08:49:34;;;;;;;14.90;13.60;;;;;;;;;;5048721;28;24473;-46
2022/09/05 08:52:08;;;;;;;14.93;13.63;;;;;;;;;;5048431;28;24414;-46
2022/09/05 08:54:53;;;;;;;12.63;11.55;;;;;;;;;;5045640;28;25041;-47
2022/09/05 08:57:18;;;;;;;12.40;11.40;;;;;;;;;;5048561;28;24536;-46
2022/09/05 09:00:05;;;;;;;12.18;11.27;;;;;;;;;;5047574;28;24506;-46
2022/09/05 09:02:39;;;;;;;13.32;12.32;;;;;;;;;;5047909;28;24422;-46
2022/09/05 09:05:06;;;;;;;12.95;11.75;;;;;;;;;;5047786;28;24400;-46
2022/09/05 09:07:34;;;;;;;13.63;12.52;;;;;;;;;;5046473;28;24451;-47
2022/09/05 09:10:14;;;;;;;14.45;13.25;;;;;;;;;;5044229;28;26541;-47
2022/09/05 09:12:58;;;;;;;14.30;13.10;;;;;;;;;;5035363;28;24506;-45
2022/09/05 09:15:41;;;;;;;13.90;12.70;;;;;;;;;;5042776;28;24481;-45
2022/09/05 09:18:11;;;;;;;12.70;11.70;;;;;;;;;;5025597;28;25032;-46
2022/09/05 09:20:51;;;;;;;13.90;12.70;;;;;;;;;;5033957;28;24952;-46
2022/09/05 09:23:19;;;;;;;12.60;11.60;;;;;;;;;;5033509;28;24531;-46
2022/09/05 09:25:53;;;;;;;13.43;12.18;;;;;;;;;;5028159;28;24445;-47
2022/09/05 09:28:38;;;;;;;13.27;12.17;;;;;;;;;;5028238;28;24415;-46
2022/09/05 09:31:22;;;;;;;12.88;11.85;;;;;;;;;;5043293;28;24419;-45
2022/09/05 09:34:07;;;;;;;12.68;11.68;;;;;;;;;;5044269;28;24418;-46
2022/09/05 09:36:52;;;;;;;12.07;11.07;;;;;;;;;;5026000;28;24447;-47
2022/09/05 09:39:26;;;;;;;11.90;10.90;;;;;;;;;;5036220;28;24482;-46
2022/09/05 09:41:54;;;;;;;12.75;11.75;;;;;;;;;;5047692;28;24384;-46
2022/09/05 09:44:42;;;;;;;11.60;10.70;;;;;;;;;;5045676;28;24512;-46
2022/09/05 09:47:12;;;;;;;12.30;11.10;;;;;;;;;;5046097;28;24417;-46
2022/09/05 09:49:37;;;;;;;11.82;10.82;;;;;;;;;;5036966;28;24420;-47
2022/09/05 09:52:30;;;;;;;12.57;11.50;;;;;;;;;;5027355;28;24440;-47
2022/09/05 09:55:15;;;;;;;11.55;10.63;;;;;;;;;;5041452;28;24530;-46
2022/09/05 09:57:59;;;;;;;12.10;11.10;;;;;;;;;;5047004;28;25305;-47
2022/09/05 10:00:29;;;;;;;11.70;10.80;;;;;;;;;;5044069;28;24419;-46
2022/09/05 10:03:13;;;;;;;11.73;10.82;;;;;;;;;;5045258;28;24947;-47
2022/09/05 10:05:56;;;;;;;12.13;11.02;;;;;;;;;;5045411;28;24493;-47
2022/09/05 10:08:40;;;;;;;11.40;10.50;;;;;;;;;;5045565;28;24657;-46
2022/09/05 10:11:11;;;;;;;10.73;9.88;;;;;;;;;;5046318;28;24431;-47
2022/09/05 10:13:36;;;;;;;11.33;10.43;;;;;;;;;;5045615;28;24519;-46
2022/09/05 10:16:14;;;;;;;12.40;11.30;;;;;;;;;;5045578;28;24581;-47
2022/09/05 10:18:53;;;;;;;11.55;10.65;;;;;;;;;;5045725;28;24423;-46
2022/09/05 10:21:37;;;;;;;11.45;10.55;;;;;;;;;;5043504;28;24411;-47
2022/09/05 10:24:21;;;;;;;10.98;10.18;;;;;;;;;;5045405;28;24508;-47
2022/09/05 10:26:49;;;;;;;10.70;9.90;;;;;;;;;;5044770;28;24407;-47
2022/09/05 10:29:35;;;;;;;11.32;10.43;;;;;;;;;;5046798;28;24482;-46
2022/09/05 10:32:07;;;;;;;10.10;9.30;;;;;;;;;;5041745;28;24423;-46
2022/09/05 10:34:51;;;;;;;11.00;10.10;;;;;;;;;;5023534;28;24443;-47
2022/09/05 10:37:17;;;;;;;10.43;9.63;;;;;;;;;;5032895;28;24424;-47
2022/09/05 10:39:45;;;;;;;11.97;10.50;;;;;;;;;;5044905;28;24461;-44
2022/09/05 10:42:19;;;;;;;11.40;10.40;;;;;;;;;;5043220;28;24476;-46
2022/09/05 10:44:48;;;;;;;10.52;9.73;;;;;;;;;;5046625;28;24482;-46
2022/09/05 10:47:29;;;;;;;10.52;9.73;;;;;;;;;;5045190;28;24531;-47
2022/09/05 10:50:06;;;;;;;9.90;9.20;;;;;;;;;;5044507;28;24411;-47
2022/09/05 10:52:56;;;;;;;10.50;9.70;;;;;;;;;;5038526;28;24439;-47
2022/09/05 10:55:29;;;;;;;9.82;9.13;;;;;;;;;;5024645;28;24841;-47
2022/09/05 10:57:57;;;;;;;9.30;8.50;;;;;;;;;;5042979;28;24506;-47
2022/09/05 11:00:33;;;;;;;9.60;8.90;;;;;;;;;;5044042;28;25137;-47
2022/09/05 11:02:59;;;;;;;8.18;7.60;;;;;;;;;;5039855;28;25004;-47
2022/09/05 11:05:26;;;;;;;9.43;8.63;;;;;;;;;;5033163;28;24868;-48
2022/09/05 11:07:57;;;;;;;8.60;8.00;;;;;;;;;;5044516;28;24932;-47
2022/09/05 11:10:30;;;;;;;7.80;7.30;;;;;;;;;;5045042;28;24457;-47
2022/09/05 11:13:05;;;;;;;8.50;7.90;;;;;;;;;;5043518;28;24399;-48
2022/09/05 11:15:49;;;;;;;8.30;7.70;;;;;;;;;;5042996;28;24481;-47
2022/09/05 11:18:17;;;;;;;7.50;6.90;;;;;;;;;;5024281;28;24878;-47
2022/09/05 11:20:47;;;;;;;8.60;7.80;;;;;;;;;;5034537;28;24944;-46
2022/09/05 11:23:25;;;;;;;8.20;7.70;;;;;;;;;;5047136;28;24399;-48
2022/09/05 11:25:54;;;;;;;9.15;8.35;;;;;;;;;;5041051;28;24482;-47
2022/09/05 11:28:24;;;;;;;8.18;7.38;;;;;;;;;;5048990;28;24820;-46
2022/09/05 11:30:52;;;;;;;7.93;7.33;;;;;;;;;;5043808;28;24519;-48
2022/09/05 11:33:34;;;;;;;7.75;7.20;;;;;;;;;;5050093;28;24741;-47
2022/09/05 11:36:02;;;;;;;8.02;7.40;;;;;;;;;;5037878;28;24535;-47
2022/09/05 11:38:49;;;;;;;7.40;6.90;;;;;;;;;;5028641;28;24411;-46
2022/09/05 11:41:40;;;;;;;7.53;6.93;;;;;;;;;;5032334;28;24841;-46
2022/09/05 11:44:10;;;;;;;7.97;7.38;;;;;;;;;;5033030;28;24467;-47
2022/09/05 11:46:40;;;;;;;7.70;7.20;;;;;;;;;;5029876;28;25087;-47
2022/09/05 11:49:18;;;;;;;7.40;6.80;;;;;;;;;;5029873;28;24754;-47
2022/09/05 11:52:02;;;;;;;7.50;7.00;;;;;;;;;;5030052;28;24423;-47
2022/09/05 11:54:47;;;;;;;7.40;6.80;;;;;;;;;;5029572;28;24399;-47
2022/09/05 11:57:39;;;;;;;6.45;5.95;;;;;;;;;;5029941;28;24463;-47
2022/09/05 12:00:10;;;;;;;7.15;6.65;;;;;;;;;;5027275;28;24673;-48
2022/09/05 12:02:54;;;;;;;6.63;6.23;;;;;;;;;;5035663;28;25303;-47
2022/09/05 12:05:31;;;;;;;6.90;6.50;;;;;;;;;;5049558;28;24419;-47
2022/09/05 12:08:09;;;;;;;6.63;6.22;;;;;;;;;;5040106;28;24427;-47
2022/09/05 12:10:56;;;;;;;6.70;6.30;;;;;;;;;;5028931;28;24392;-47
2022/09/05 12:13:24;;;;;;;7.03;6.50;;;;;;;;;;5038196;28;24853;-47
2022/09/05 12:15:49;;;;;;;7.47;6.88;;;;;;;;;;5049672;28;24419;-47
2022/09/05 12:18:18;;;;;;;6.90;6.40;;;;;;;;;;5049166;28;24753;-47
2022/09/05 12:20:53;;;;;;;7.20;6.70;;;;;;;;;;5049069;28;24445;-46
2022/09/05 12:23:28;;;;;;;8.18;7.38;;;;;;;;;;5047719;28;24439;-47
2022/09/05 12:26:11;;;;;;;7.65;7.05;;;;;;;;;;5029641;28;25263;-47
2022/09/05 12:28:41;;;;;;;7.22;6.82;;;;;;;;;;5029292;28;24410;-46
2022/09/05 12:31:10;;;;;;;6.70;6.30;;;;;;;;;;5029088;28;24404;-46
2022/09/05 12:33:36;;;;;;;6.90;6.50;;;;;;;;;;5028872;28;24399;-47
2022/09/05 12:36:07;;;;;;;7.30;6.80;;;;;;;;;;5029505;28;24802;-46
2022/09/05 12:38:36;;;;;;;7.35;6.85;;;;;;;;;;5029246;28;24380;-46
2022/09/05 12:41:07;;;;;;;7.57;7.07;;;;;;;;;;5030532;28;24529;-47
2022/09/05 12:43:34;;;;;;;8.10;7.50;;;;;;;;;;5048180;28;24943;-47
2022/09/05 12:46:26;;;;;;;7.50;6.90;;;;;;;;;;5049027;28;24982;-47
2022/09/05 12:49:00;;;;;;;6.75;6.32;;;;;;;;;;5048227;28;24411;-47
2022/09/05 12:51:28;;;;;;;7.90;7.20;;;;;;;;;;5045061;28;25024;-47
2022/09/05 12:53:56;;;;;;;7.35;6.85;;;;;;;;;;5048714;28;24866;-47
2022/09/05 12:56:29;;;;;;;7.50;7.00;;;;;;;;;;5048728;28;24426;-47
2022/09/05 12:58:55;;;;;;;7.53;6.93;;;;;;;;;;5048875;28;25027;-47
2022/09/05 13:01:30;;;;;;;7.10;6.60;;;;;;;;;;5047795;28;24420;-47
2022/09/05 13:03:59;;;;;;;7.25;6.75;;;;;;;;;;5035199;28;24481;-47
2022/09/05 13:06:29;;;;;;;7.38;6.88;;;;;;;;;;5039527;28;24430;-47
2022/09/05 13:09:01;;;;;;;7.40;6.90;;;;;;;;;;5028693;28;24738;-48
2022/09/05 13:11:28;;;;;;;7.70;7.10;;;;;;;;;;5025949;28;24507;-47
2022/09/05 13:13:56;;;;;;;7.60;7.00;;;;;;;;;;5045908;28;24731;-47
2022/09/05 13:16:23;;;;;;;8.13;7.53;;;;;;;;;;5048392;28;24431;-47
2022/09/05 13:18:50;;;;;;;8.53;7.90;;;;;;;;;;5047940;28;24402;-47
2022/09/05 13:21:20;;;;;;;9.33;8.63;;;;;;;;;;5047988;28;24395;-46
2022/09/05 13:23:53;;;;;;;8.25;7.65;;;;;;;;;;5047016;28;24420;-47
2022/09/05 13:26:32;;;;;;;8.75;8.05;;;;;;;;;;5047961;28;24453;-47
2022/09/05 13:29:00;;;;;;;8.35;7.80;;;;;;;;;;5048177;28;24391;-47
2022/09/05 13:31:40;;;;;;;8.90;8.20;;;;;;;;;;5045344;28;24457;-48
2022/09/05 13:34:24;;;;;;;9.00;8.40;;;;;;;;;;5029472;28;24436;-47
2022/09/05 13:36:58;;;;;;;8.60;8.00;;;;;;;;;;5043603;28;24759;-46
2022/09/05 13:39:27;;;;;;;8.32;7.82;;;;;;;;;;5047607;28;24510;-47
2022/09/05 13:41:55;;;;;;;8.70;8.10;;;;;;;;;;5044527;28;24417;-47
2022/09/05 13:44:21;;;;;;;8.27;7.78;;;;;;;;;;5044538;28;24766;-47
2022/09/05 13:46:52;;;;;;;8.90;8.30;;;;;;;;;;5028156;28;24958;-47
2022/09/05 13:49:29;;;;;;;7.97;7.47;;;;;;;;;;5027369;28;24469;-47
2022/09/05 13:52:23;;;;;;;9.50;8.70;;;;;;;;;;5025969;28;24465;-47
2022/09/05 13:55:09;;;;;;;8.50;7.90;;;;;;;;;;5034346;28;25215;-47
2022/09/05 13:57:46;;;;;;;8.57;7.95;;;;;;;;;;5045521;28;24925;-47
2022/09/05 14:00:12;;;;;;;8.80;8.10;;;;;;;;;;5045771;28;24473;-47
2022/09/05 14:02:49;;;;;;;9.07;8.47;;;;;;;;;;5043619;28;24428;-48
2022/09/05 14:05:21;;;;;;;8.90;8.30;;;;;;;;;;5035045;28;24777;-48
2022/09/05 14:07:57;;;;;;;9.10;8.50;;;;;;;;;;5038610;28;24783;-46
2022/09/05 14:10:42;;;;;;;9.00;8.40;;;;;;;;;;5032994;28;24431;-46
2022/09/05 14:13:13;;;;;;;9.20;8.60;;;;;;;;;;5030133;28;24522;-51
2022/09/05 14:15:49;;;;;;;8.55;7.93;;;;;;;;;;5030963;28;24431;-46
2022/09/05 14:18:20;;;;;;;9.00;8.30;;;;;;;;;;5037292;28;24434;-47
2022/09/05 14:24:10;;;;;;;9.00;8.30;;;;;;;;;;5035048;28;24414;-47
2022/09/05 14:26:50;;;;;;;8.70;8.10;;;;;;;;;;5042102;28;24577;-48
2022/09/05 14:29:19;;;;;;;9.10;8.40;;;;;;;;;;5044250;28;24476;-47
2022/09/05 14:31:50;;;;;;;9.63;8.82;;;;;;;;;;5042902;28;24430;-47
2022/09/05 14:34:37;;;;;;;8.70;8.10;;;;;;;;;;5046540;28;24469;-47
2022/09/05 14:37:14;;;;;;;8.85;8.23;;;;;;;;;;5046617;28;24522;-47
2022/09/05 14:39:58;;;;;;;8.60;7.95;;;;;;;;;;5046490;28;24402;-47
2022/09/05 14:42:42;;;;;;;9.00;8.40;;;;;;;;;;5045826;28;24426;-46
2022/09/05 14:45:13;;;;;;;9.13;8.53;;;;;;;;;;5046986;28;24439;-47
2022/09/05 14:47:47;;;;;;;9.10;8.40;;;;;;;;;;5046376;28;24399;-47
2022/09/05 14:50:31;;;;;;;8.23;7.63;;;;;;;;;;5046800;28;24457;-47
2022/09/05 14:53:04;;;;;;;9.20;8.40;;;;;;;;;;5046336;28;24407;-46
2022/09/05 14:55:29;;;;;;;8.20;7.70;;;;;;;;;;5050768;28;24884;-46
2022/09/05 14:57:55;;;;;;;8.30;7.80;;;;;;;;;;5049451;28;24435;-47
2022/09/05 15:00:21;;;;;;;8.25;7.65;;;;;;;;;;5050607;28;24464;-47
2022/09/05 15:02:49;;;;;;;8.55;8.00;;;;;;;;;;5050270;28;24396;-47
2022/09/05 15:05:14;;;;;;;8.67;8.17;;;;;;;;;;5050105;28;24407;-47
2022/09/05 15:07:46;;;;;;;8.50;7.90;;;;;;;;;;5050193;28;24420;-47
2022/09/05 15:10:18;;;;;;;9.35;8.70;;;;;;;;;;5050278;28;24420;-47
2022/09/05 15:12:49;;;;;;;8.60;8.00;;;;;;;;;;5050228;28;24423;-48
2022/09/05 15:15:21;;;;;;;9.50;8.80;;;;;;;;;;5050228;28;24973;-47